createdAt,value
2019-06-20T00:01:05.515Z,2.70
2019-06-20T00:03:35.203Z,2.65
2019-06-20T00:06:04.981Z,2.90
2019-06-20T00:08:34.562Z,3.27
2019-06-20T00:11:04.177Z,3.12
2019-06-20T00:13:33.908Z,2.75
2019-06-20T00:16:04.732Z,2.90
2019-06-20T00:18:34.277Z,3.02
2019-06-20T00:21:03.899Z,3.08
2019-06-20T00:23:33.614Z,3.17
2019-06-20T00:26:03.322Z,2.83
2019-06-20T00:28:33.011Z,2.80
2019-06-20T00:31:03.017Z,2.95
2019-06-20T00:33:32.685Z,2.70
2019-06-20T00:36:02.385Z,2.52
2019-06-20T00:38:32.041Z,2.98
2019-06-20T00:41:01.737Z,3.22
2019-06-20T00:43:31.285Z,2.42
2019-06-20T00:46:00.880Z,2.90
2019-06-20T00:48:30.561Z,3.10
2019-06-20T00:51:00.085Z,2.95
2019-06-20T00:53:29.782Z,3.12
2019-06-20T00:55:59.487Z,3.25
2019-06-20T00:58:29.255Z,3.00
2019-06-20T01:00:59.005Z,3.30
2019-06-20T01:03:28.655Z,3.40
2019-06-20T01:05:58.314Z,3.25
2019-06-20T01:08:28.012Z,3.47
2019-06-20T01:10:57.515Z,3.20
2019-06-20T01:13:33.528Z,3.40
2019-06-20T01:15:58.593Z,3.10
2019-06-20T01:18:28.133Z,3.25
2019-06-20T01:20:57.962Z,3.47
2019-06-20T01:23:27.607Z,3.37
2019-06-20T01:25:57.282Z,3.15
2019-06-20T01:28:27.144Z,3.20
2019-06-20T01:30:56.778Z,3.50
2019-06-20T01:33:26.486Z,3.20
2019-06-20T01:35:56.050Z,3.60
2019-06-20T01:38:25.767Z,3.30
2019-06-20T01:40:55.411Z,3.60
2019-06-20T01:43:25.075Z,3.15
2019-06-20T01:45:55.003Z,3.70
2019-06-20T01:48:25.128Z,3.40
2019-06-20T01:50:54.807Z,3.80
2019-06-20T01:53:24.531Z,3.60
2019-06-20T01:55:54.287Z,3.75
2019-06-20T01:58:24.054Z,3.40
2019-06-20T02:00:53.797Z,3.75
2019-06-20T02:03:23.502Z,3.47
2019-06-20T02:05:53.212Z,3.42
2019-06-20T02:08:23.112Z,3.10
2019-06-20T02:10:52.660Z,3.00
2019-06-20T02:13:22.961Z,3.20
2019-06-20T02:15:52.658Z,3.52
2019-06-20T02:18:22.375Z,3.70
2019-06-20T02:20:57.889Z,3.55
2019-06-20T02:23:27.628Z,3.50
2019-06-20T02:25:57.221Z,3.22
2019-06-20T02:28:26.848Z,3.17
2019-06-20T02:30:56.564Z,3.10
2019-06-20T02:33:26.196Z,3.02
2019-06-20T02:35:55.773Z,3.22
2019-06-20T02:38:25.337Z,3.10
2019-06-20T02:40:55.100Z,3.50
2019-06-20T02:43:24.848Z,3.50
2019-06-20T02:45:54.578Z,3.35
2019-06-20T02:48:24.298Z,3.37
2019-06-20T02:50:53.861Z,3.27
2019-06-20T02:53:23.543Z,3.50
2019-06-20T02:55:53.165Z,3.52
2019-06-20T02:58:22.914Z,3.60
2019-06-20T03:00:58.430Z,3.40
2019-06-20T03:03:30.570Z,3.17
2019-06-20T03:08:30.000Z,3.37
2019-06-20T03:10:59.922Z,3.47
2019-06-20T03:13:30.127Z,3.20
2019-06-20T03:16:00.585Z,3.33
2019-06-20T03:18:30.722Z,3.08
2019-06-20T03:21:01.214Z,3.12
2019-06-20T03:23:32.395Z,3.10
2019-06-20T03:26:02.794Z,3.17
2019-06-20T03:28:33.121Z,3.65
2019-06-20T03:31:03.303Z,2.92
2019-06-20T03:33:33.707Z,3.17
2019-06-20T03:36:04.152Z,3.50
2019-06-20T03:38:34.366Z,3.40
2019-06-20T03:41:04.767Z,3.52
2019-06-20T03:43:34.969Z,3.20
2019-06-20T03:46:05.418Z,3.25
2019-06-20T03:48:35.706Z,2.98
2019-06-20T03:51:06.031Z,3.22
2019-06-20T03:53:36.144Z,3.17
2019-06-20T03:56:06.715Z,3.35
2019-06-20T03:58:37.401Z,2.95
2019-06-20T04:01:07.434Z,3.17
2019-06-20T04:03:37.657Z,3.20
2019-06-20T04:06:07.848Z,3.42
2019-06-20T04:08:38.309Z,3.45
2019-06-20T04:11:08.649Z,3.58
2019-06-20T04:13:39.251Z,3.05
2019-06-20T04:16:09.800Z,2.90
2019-06-20T04:18:40.507Z,2.92
2019-06-20T04:21:10.758Z,2.90
2019-06-20T04:23:40.891Z,3.08
2019-06-20T04:26:11.476Z,3.42
2019-06-20T04:28:41.699Z,3.33
2019-06-20T04:31:11.966Z,2.98
2019-06-20T04:33:42.512Z,3.27
2019-06-20T04:36:12.880Z,3.45
2019-06-20T04:38:43.189Z,2.98
2019-06-20T04:41:13.517Z,3.30
2019-06-20T04:43:44.022Z,3.05
2019-06-20T04:46:21.854Z,2.90
2019-06-20T04:48:52.246Z,3.00
2019-06-20T04:51:22.441Z,3.27
2019-06-20T04:53:52.817Z,3.00
2019-06-20T04:56:23.223Z,3.22
2019-06-20T04:58:53.482Z,3.10
2019-06-20T05:01:23.743Z,3.67
2019-06-20T05:03:53.924Z,3.17
2019-06-20T05:06:24.255Z,3.50
2019-06-20T05:08:54.497Z,3.58
2019-06-20T05:11:24.833Z,3.70
2019-06-20T05:13:55.035Z,3.00
2019-06-20T05:16:25.335Z,2.80
2019-06-20T05:18:55.664Z,3.10
2019-06-20T05:21:25.758Z,3.12
2019-06-20T05:23:56.312Z,3.37
2019-06-20T05:26:26.410Z,3.10
2019-06-20T05:28:56.701Z,3.27
2019-06-20T05:31:26.954Z,2.90
2019-06-20T05:33:57.197Z,3.58
2019-06-20T05:36:27.839Z,3.40
2019-06-20T05:38:57.863Z,3.70
2019-06-20T05:41:28.081Z,3.85
2019-06-20T05:43:58.302Z,3.65
2019-06-20T05:46:28.494Z,3.85
2019-06-20T05:48:58.820Z,4.22
2019-06-20T05:51:29.274Z,4.12
2019-06-20T05:53:59.563Z,3.40
2019-06-20T05:56:29.876Z,3.50
2019-06-20T05:59:00.624Z,3.55
2019-06-20T06:01:30.822Z,4.45
2019-06-20T06:04:00.927Z,3.20
2019-06-20T06:06:31.336Z,4.08
2019-06-20T06:09:01.869Z,3.50
2019-06-20T06:11:32.171Z,3.12
2019-06-20T06:14:02.326Z,3.67
2019-06-20T06:16:32.543Z,2.72
2019-06-20T06:19:02.805Z,4.28
2019-06-20T06:21:33.184Z,2.95
2019-06-20T06:24:03.324Z,3.40
2019-06-20T06:26:34.544Z,3.35
2019-06-20T06:29:04.937Z,3.80
2019-06-20T06:31:35.260Z,3.92
2019-06-20T06:34:05.492Z,3.47
2019-06-20T06:36:35.645Z,4.10
2019-06-20T06:39:11.135Z,3.75
2019-06-20T06:41:41.496Z,3.30
2019-06-20T06:44:11.727Z,3.83
2019-06-20T06:46:48.416Z,3.70
2019-06-20T06:49:13.761Z,3.20
2019-06-20T06:51:44.074Z,4.17
2019-06-20T06:54:14.409Z,3.52
2019-06-20T06:56:44.681Z,3.35
2019-06-20T06:59:14.926Z,3.08
2019-06-20T07:01:45.396Z,2.98
2019-06-20T07:04:15.783Z,3.47
2019-06-20T07:06:46.119Z,2.85
2019-06-20T07:09:16.348Z,2.87
2019-06-20T07:11:46.527Z,3.05
2019-06-20T07:14:16.934Z,3.00
2019-06-20T07:16:59.724Z,2.65
2019-06-20T07:19:18.773Z,2.90
2019-06-20T07:21:49.208Z,2.72
2019-06-20T07:24:19.664Z,2.70
2019-06-20T07:26:49.790Z,2.98
2019-06-20T07:29:20.081Z,3.02
2019-06-20T07:31:50.423Z,2.50
2019-06-20T07:34:20.737Z,2.60
2019-06-20T07:36:51.040Z,2.60
2019-06-20T07:39:21.416Z,2.80
2019-06-20T07:41:51.711Z,2.75
2019-06-20T07:44:22.402Z,2.35
2019-06-20T07:46:52.532Z,3.25
2019-06-20T07:49:22.760Z,2.12
2019-06-20T07:51:52.770Z,2.50
2019-06-20T07:54:23.037Z,2.27
2019-06-20T07:56:53.602Z,2.17
2019-06-20T07:59:23.979Z,2.40
2019-06-20T08:01:54.091Z,2.00
2019-06-20T08:04:24.218Z,2.45
2019-06-20T08:06:54.520Z,2.08
2019-06-20T08:09:25.120Z,2.40
2019-06-20T08:11:55.357Z,1.75
2019-06-20T08:14:25.913Z,2.10
2019-06-20T08:16:56.168Z,1.72
2019-06-20T08:19:26.557Z,2.08
2019-06-20T08:21:57.012Z,2.10
2019-06-20T08:24:27.411Z,1.85
2019-06-20T08:26:58.705Z,2.00
2019-06-20T08:29:29.781Z,2.05
2019-06-20T08:32:01.056Z,1.87
2019-06-20T08:37:02.439Z,1.80
2019-06-20T08:39:33.759Z,2.67
2019-06-20T08:42:04.398Z,2.10
2019-06-20T08:44:34.635Z,2.02
2019-06-20T08:47:05.861Z,2.10
2019-06-20T08:49:36.169Z,2.45
2019-06-20T08:52:06.489Z,2.05
2019-06-20T08:54:36.839Z,2.37
2019-06-20T08:57:07.119Z,2.00
2019-06-20T08:59:37.428Z,1.90
2019-06-20T09:02:07.904Z,1.75
2019-06-20T09:04:38.058Z,1.70
2019-06-20T09:07:08.214Z,1.92
2019-06-20T09:09:38.472Z,1.70
2019-06-20T09:12:08.673Z,1.70
2019-06-20T09:14:39.245Z,1.70
2019-06-20T09:17:09.571Z,1.92
2019-06-20T09:19:40.353Z,2.00
2019-06-20T09:22:10.648Z,1.67
2019-06-20T09:24:41.357Z,2.00
2019-06-20T09:27:11.712Z,1.67
2019-06-20T09:29:42.367Z,1.62
2019-06-20T09:32:12.500Z,2.00
2019-06-20T09:34:42.811Z,2.90
2019-06-20T09:37:13.141Z,2.35
2019-06-20T09:39:43.792Z,1.80
2019-06-20T09:42:14.282Z,1.75
2019-06-20T09:44:44.910Z,1.95
2019-06-20T09:47:15.246Z,1.70
2019-06-20T09:49:49.122Z,2.00
2019-06-20T09:52:17.439Z,2.10
2019-06-20T09:54:49.850Z,2.40
2019-06-20T09:57:19.968Z,1.85
2019-06-20T10:00:02.824Z,2.08
2019-06-20T10:02:22.343Z,2.30
2019-06-20T10:04:52.366Z,2.25
2019-06-20T10:07:22.631Z,1.80
2019-06-20T10:09:54.135Z,2.20
2019-06-20T10:12:24.578Z,2.10
2019-06-20T10:14:56.183Z,1.55
2019-06-20T10:17:26.686Z,1.52
2019-06-20T10:19:57.116Z,1.60
2019-06-20T10:22:27.570Z,1.70
2019-06-20T10:24:57.968Z,1.90
2019-06-20T10:27:28.498Z,1.45
2019-06-20T10:30:13.494Z,1.98
2019-06-20T10:32:30.600Z,1.60
2019-06-20T10:35:00.882Z,1.95
2019-06-20T10:37:31.181Z,2.30
2019-06-20T10:40:01.651Z,2.12
2019-06-20T10:42:31.918Z,2.30
2019-06-20T10:45:02.197Z,2.15
2019-06-20T10:47:35.956Z,2.30
2019-06-20T10:50:07.635Z,1.82
2019-06-20T10:52:37.875Z,2.00
2019-06-20T10:55:08.806Z,2.10
2019-06-20T10:57:41.329Z,2.10
2019-06-20T11:00:12.882Z,2.02
2019-06-20T11:02:43.870Z,1.80
2019-06-20T11:07:47.622Z,2.08
2019-06-20T11:10:18.702Z,1.95
2019-06-20T11:12:54.896Z,1.82
2019-06-20T11:17:51.581Z,1.70
2019-06-20T11:20:23.531Z,1.40
2019-06-20T11:25:23.537Z,1.55
2019-06-20T11:27:53.735Z,1.07
2019-06-20T11:30:27.910Z,1.75
2019-06-20T11:32:58.007Z,1.60
2019-06-20T11:35:28.505Z,1.50
2019-06-20T11:37:58.682Z,1.60
2019-06-20T11:40:29.015Z,1.70
2019-06-20T11:43:11.370Z,1.90
2019-06-20T11:45:52.596Z,1.20
2019-06-20T11:48:22.866Z,1.60
2019-06-20T11:50:53.128Z,1.75
2019-06-20T11:53:23.597Z,1.40
2019-06-20T11:55:53.897Z,1.32
2019-06-20T11:58:24.241Z,1.60
2019-06-20T12:01:03.479Z,1.37
2019-06-20T12:05:56.173Z,1.42
2019-06-20T12:08:26.530Z,1.30
2019-06-20T12:10:56.671Z,1.40
2019-06-20T12:13:26.921Z,1.32
2019-06-20T12:15:57.218Z,1.40
2019-06-20T12:18:27.518Z,1.60
2019-06-20T12:20:57.881Z,1.25
2019-06-20T12:23:28.195Z,1.50
2019-06-20T12:25:58.494Z,1.55
2019-06-20T12:28:29.019Z,1.30
2019-06-20T12:30:59.187Z,1.12
2019-06-20T12:33:29.392Z,1.40
2019-06-20T12:35:59.791Z,1.07
2019-06-20T12:38:30.087Z,1.07
2019-06-20T12:41:00.449Z,1.00
2019-06-20T12:43:30.566Z,0.93
2019-06-20T12:46:01.034Z,0.80
2019-06-20T12:48:31.076Z,0.60
2019-06-20T12:51:01.493Z,0.70
2019-06-20T12:53:31.909Z,0.70
2019-06-20T12:56:02.459Z,1.02
2019-06-20T12:58:32.759Z,0.90
2019-06-20T13:01:03.104Z,0.72
2019-06-20T13:03:33.255Z,0.40
2019-06-20T13:06:03.611Z,0.53
2019-06-20T13:08:33.944Z,0.60
2019-06-20T13:11:03.987Z,1.00
2019-06-20T13:13:34.125Z,0.70
2019-06-20T13:16:04.496Z,0.80
2019-06-20T13:18:36.194Z,0.78
2019-06-20T13:21:06.482Z,0.80
2019-06-20T13:23:36.756Z,1.00
2019-06-20T13:26:07.183Z,0.80
2019-06-20T13:28:53.798Z,0.57
2019-06-20T13:31:09.547Z,0.80
2019-06-20T13:33:40.871Z,0.78
2019-06-20T13:36:11.708Z,0.50
2019-06-20T13:38:42.750Z,0.70
2019-06-20T13:41:13.132Z,0.70
2019-06-20T13:43:43.409Z,0.90
2019-06-20T13:46:13.823Z,0.90
2019-06-20T13:48:45.699Z,0.72
2019-06-20T13:53:46.324Z,0.50
2019-06-20T13:56:16.949Z,0.80
2019-06-20T13:58:48.742Z,0.85
2019-06-20T14:01:18.882Z,0.70
2019-06-20T14:03:49.093Z,0.70
2019-06-20T14:06:19.595Z,0.80
2019-06-20T14:08:50.225Z,0.68
2019-06-20T14:11:20.676Z,0.60
2019-06-20T14:13:53.048Z,0.98
2019-06-20T14:16:22.768Z,0.60
2019-06-20T14:18:53.161Z,0.68
2019-06-20T14:21:23.401Z,0.80
2019-06-20T14:23:53.908Z,0.78
2019-06-20T14:26:24.360Z,0.68
2019-06-20T14:28:55.746Z,0.70
2019-06-20T14:31:26.342Z,1.00
2019-06-20T14:33:56.645Z,1.30
2019-06-20T14:36:26.890Z,1.00
2019-06-20T14:38:57.276Z,0.90
2019-06-20T14:41:27.561Z,1.12
2019-06-20T14:43:57.858Z,1.10
2019-06-20T14:46:27.977Z,1.42
2019-06-20T14:48:58.367Z,1.50
2019-06-20T14:51:28.582Z,1.40
2019-06-20T14:53:58.982Z,1.50
2019-06-20T14:56:29.307Z,1.80
2019-06-20T14:58:59.639Z,1.60
2019-06-20T15:01:29.917Z,1.70
2019-06-20T15:04:00.353Z,1.80
2019-06-20T15:06:30.758Z,2.00
2019-06-20T15:09:05.818Z,1.98
2019-06-20T15:11:33.371Z,2.15
2019-06-20T15:14:03.508Z,2.20
2019-06-20T15:16:33.751Z,1.92
2019-06-20T15:19:03.971Z,2.50
2019-06-20T15:21:34.354Z,2.50
2019-06-20T15:24:04.675Z,2.80
2019-06-20T15:26:34.847Z,2.47
2019-06-20T15:29:06.289Z,2.65
2019-06-20T15:31:36.816Z,2.70
2019-06-20T15:34:07.190Z,2.65
2019-06-20T15:36:38.593Z,2.72
2019-06-20T15:39:09.595Z,2.90
2019-06-20T15:41:39.900Z,3.10
2019-06-20T15:44:10.071Z,3.17
2019-06-20T15:46:40.372Z,3.30
2019-06-20T15:49:16.135Z,3.70
2019-06-20T15:54:11.807Z,3.15
2019-06-20T15:56:41.915Z,3.67
2019-06-20T15:59:12.285Z,3.50
2019-06-20T16:01:42.553Z,3.27
2019-06-20T16:04:12.871Z,3.25
2019-06-20T16:06:42.930Z,3.40
2019-06-20T16:09:13.382Z,3.20
2019-06-20T16:11:43.644Z,3.40
2019-06-20T16:14:13.994Z,3.40
2019-06-20T16:16:44.233Z,3.47
2019-06-20T16:19:14.390Z,3.37
2019-06-20T16:21:44.793Z,3.60
2019-06-20T16:24:14.922Z,3.58
2019-06-20T16:26:45.607Z,3.65
2019-06-20T16:29:15.770Z,3.42
2019-06-20T16:31:45.916Z,3.17
2019-06-20T16:34:16.170Z,3.25
2019-06-20T16:36:46.655Z,2.83
2019-06-20T16:39:17.251Z,3.08
2019-06-20T16:41:47.487Z,2.58
2019-06-20T16:44:17.591Z,2.27
2019-06-20T16:46:47.812Z,2.60
2019-06-20T16:49:18.013Z,1.70
2019-06-20T16:51:48.408Z,1.60
2019-06-20T16:54:18.587Z,1.70
2019-06-20T16:56:48.823Z,1.50
2019-06-20T16:59:18.930Z,2.00
2019-06-20T17:01:49.060Z,1.80
2019-06-20T17:04:19.468Z,1.60
2019-06-20T17:06:49.494Z,1.52
2019-06-20T17:09:19.691Z,1.60
2019-06-20T17:11:50.072Z,1.30
2019-06-20T17:14:20.627Z,1.50
2019-06-20T17:16:51.077Z,1.60
2019-06-20T17:19:21.364Z,1.40
2019-06-20T17:21:51.671Z,1.40
2019-06-20T17:24:21.866Z,1.30
2019-06-20T17:26:52.257Z,1.30
2019-06-20T17:29:22.414Z,1.62
2019-06-20T17:31:52.735Z,1.87
2019-06-20T17:34:22.782Z,1.67
2019-06-20T17:36:52.932Z,1.50
2019-06-20T17:39:23.396Z,1.57
2019-06-20T17:41:55.481Z,1.70
2019-06-20T17:44:27.551Z,1.55
2019-06-20T17:46:57.855Z,1.52
2019-06-20T17:49:28.482Z,1.40
2019-06-20T17:51:58.814Z,1.35
2019-06-20T17:54:29.228Z,1.35
2019-06-20T17:56:59.631Z,1.50
2019-06-20T17:59:29.979Z,1.37
2019-06-20T18:02:00.330Z,1.42
2019-06-20T18:04:30.637Z,1.52
2019-06-20T18:07:00.902Z,1.50
2019-06-20T18:09:31.108Z,1.37
2019-06-20T18:12:01.371Z,1.32
2019-06-20T18:14:34.099Z,1.32
2019-06-20T18:17:03.358Z,1.52
2019-06-20T18:19:33.842Z,1.50
2019-06-20T18:22:03.973Z,1.50
2019-06-20T18:24:34.326Z,1.60
2019-06-20T18:27:04.684Z,1.60
2019-06-20T18:29:35.010Z,1.70
2019-06-20T18:32:05.266Z,1.57
2019-06-20T18:34:35.820Z,1.50
2019-06-20T18:37:06.280Z,1.77
2019-06-20T18:39:37.290Z,1.65
2019-06-20T18:42:07.379Z,1.80
2019-06-20T18:44:37.479Z,1.85
2019-06-20T18:47:07.738Z,1.65
2019-06-20T18:49:37.881Z,1.70
2019-06-20T18:52:07.947Z,1.80
2019-06-20T18:54:38.213Z,1.70
2019-06-20T18:57:08.689Z,1.57
2019-06-20T18:59:38.921Z,1.95
2019-06-20T19:02:09.408Z,1.70
2019-06-20T19:04:47.750Z,1.70
2019-06-20T19:07:11.376Z,1.85
2019-06-20T19:09:41.442Z,1.80
2019-06-20T19:12:11.567Z,1.90
2019-06-20T19:14:41.783Z,1.90
2019-06-20T19:17:14.720Z,2.20
2019-06-20T19:19:43.895Z,2.00
2019-06-20T19:22:14.138Z,1.80
2019-06-20T19:24:44.457Z,1.60
2019-06-20T19:27:14.725Z,1.80
2019-06-20T19:29:45.111Z,1.80
2019-06-20T19:32:15.466Z,1.95
2019-06-20T19:34:58.123Z,2.02
2019-06-20T19:37:17.488Z,1.92
2019-06-20T19:39:47.908Z,2.17
2019-06-20T19:42:20.543Z,1.82
2019-06-20T19:47:19.539Z,1.90
2019-06-20T19:49:49.751Z,2.20
2019-06-20T19:52:20.175Z,1.90
2019-06-20T19:54:50.496Z,2.10
2019-06-20T19:57:20.855Z,1.90
2019-06-20T19:59:50.998Z,2.12
2019-06-20T20:02:21.045Z,2.00
2019-06-20T20:04:50.933Z,1.80
2019-06-20T20:07:20.756Z,1.82
2019-06-20T20:09:50.577Z,1.65
2019-06-20T20:12:20.365Z,1.70
2019-06-20T20:14:50.103Z,1.62
2019-06-20T20:17:19.744Z,1.80
2019-06-20T20:19:49.339Z,2.00
2019-06-20T20:22:19.035Z,1.80
2019-06-20T20:24:48.763Z,1.90
2019-06-20T20:27:18.408Z,1.67
2019-06-20T20:29:48.271Z,1.57
2019-06-20T20:32:17.987Z,1.60
2019-06-20T20:34:47.639Z,1.87
2019-06-20T20:37:18.797Z,2.10
2019-06-20T20:39:48.477Z,2.03
2019-06-20T20:42:18.201Z,1.90
2019-06-20T20:44:47.930Z,1.52
2019-06-20T20:47:17.526Z,1.87
2019-06-20T20:49:47.170Z,1.90
2019-06-20T20:52:17.007Z,1.67
2019-06-20T20:54:46.540Z,2.30
2019-06-20T20:57:16.279Z,1.87
2019-06-20T20:59:46.096Z,1.82
2019-06-20T21:02:15.782Z,1.90
2019-06-20T21:04:45.437Z,1.92
2019-06-20T21:07:15.120Z,1.90
2019-06-20T21:09:45.011Z,2.60
2019-06-20T21:12:14.717Z,1.70
2019-06-20T21:14:44.369Z,1.90
2019-06-20T21:17:14.027Z,1.80
2019-06-20T21:19:43.909Z,1.70
2019-06-20T21:22:13.623Z,2.08
2019-06-20T21:24:43.333Z,1.85
2019-06-20T21:27:13.058Z,2.12
2019-06-20T21:32:11.623Z,1.80
2019-06-20T21:34:41.289Z,2.00
2019-06-20T21:37:11.109Z,1.82
2019-06-20T21:39:40.749Z,1.92
2019-06-20T21:42:10.519Z,2.10
2019-06-20T21:44:40.448Z,1.85
2019-06-20T21:47:10.155Z,2.00
2019-06-20T21:49:39.818Z,1.90
2019-06-20T21:52:09.613Z,2.35
2019-06-20T21:57:08.206Z,2.10
2019-06-20T21:59:37.852Z,2.10
2019-06-20T22:02:08.491Z,2.37
2019-06-20T22:04:53.475Z,2.20
2019-06-20T22:07:09.758Z,2.20
2019-06-20T22:09:39.483Z,2.00
2019-06-20T22:12:09.161Z,1.80
2019-06-20T22:14:38.780Z,1.77
2019-06-20T22:17:08.502Z,2.22
2019-06-20T22:19:38.059Z,2.33
2019-06-20T22:22:07.723Z,2.10
2019-06-20T22:24:37.395Z,2.22
2019-06-20T22:27:07.325Z,2.52
2019-06-20T22:29:37.100Z,2.20
2019-06-20T22:32:06.859Z,1.98
2019-06-20T22:34:36.618Z,2.20
2019-06-20T22:37:06.460Z,2.10
2019-06-20T22:39:36.201Z,2.15
2019-06-20T22:42:05.956Z,2.25
2019-06-20T22:44:35.584Z,2.33
2019-06-20T22:47:05.303Z,2.08
2019-06-20T22:49:34.980Z,2.42
2019-06-20T22:52:04.614Z,2.05
2019-06-20T22:57:03.192Z,2.17
2019-06-20T22:59:32.927Z,2.22
2019-06-20T23:02:02.632Z,2.47
2019-06-20T23:04:32.288Z,2.33
2019-06-20T23:07:01.932Z,2.50
2019-06-20T23:09:31.546Z,2.60
2019-06-20T23:12:01.268Z,2.58
2019-06-20T23:16:59.705Z,2.47
2019-06-20T23:19:29.404Z,2.75
2019-06-20T23:21:59.038Z,2.50
2019-06-20T23:24:28.819Z,2.47
2019-06-20T23:26:58.490Z,2.22
2019-06-20T23:29:28.376Z,2.75
2019-06-20T23:31:58.065Z,2.70
2019-06-20T23:34:27.745Z,2.77
2019-06-20T23:37:11.832Z,2.52
2019-06-20T23:39:28.814Z,2.92
2019-06-20T23:41:58.416Z,2.87
2019-06-20T23:44:28.240Z,2.70
2019-06-20T23:46:57.976Z,3.27
2019-06-20T23:49:27.691Z,2.65
2019-06-20T23:52:02.175Z,3.45
2019-06-20T23:54:31.935Z,2.80
2019-06-20T23:57:01.594Z,2.92
2019-06-20T23:59:31.296Z,2.95
